createdAt,value
2019-01-03T10:38:21.041Z,14.10
2019-01-03T10:40:50.274Z,14.30
2019-01-03T10:56:18.468Z,14.70
2019-01-03T18:29:34.156Z,12.60
2019-01-03T18:32:02.714Z,12.60
2019-01-03T18:35:27.193Z,12.70
2019-01-03T18:41:43.546Z,12.50
2019-01-03T18:44:52.084Z,12.50
2019-01-03T18:47:21.140Z,12.50
2019-01-03T18:50:26.959Z,12.40
2019-01-03T18:56:23.883Z,12.30
2019-01-03T18:58:56.599Z,12.30
2019-01-03T19:01:25.215Z,12.30
2019-01-03T19:03:56.554Z,12.40
2019-01-03T19:21:07.365Z,12.10
2019-01-03T19:23:36.238Z,12.00
2019-01-03T19:26:04.999Z,12.00
2019-01-03T19:28:33.739Z,12.00
2019-01-03T19:34:30.988Z,12.00
2019-01-03T19:40:55.260Z,11.90
2019-01-03T19:43:43.426Z,11.90
2019-01-03T19:46:12.339Z,11.90
2019-01-03T19:48:40.954Z,11.80
2019-01-03T19:51:28.944Z,11.80
2019-01-03T19:53:57.564Z,11.90
2019-01-03T19:56:45.595Z,11.80
2019-01-03T19:59:14.177Z,11.80
2019-01-03T20:02:02.195Z,11.80
2019-01-03T20:04:50.334Z,11.80
2019-01-03T20:07:19.432Z,11.70
2019-01-03T20:09:48.009Z,11.60
2019-01-03T20:12:16.865Z,11.60
2019-01-03T20:14:45.499Z,11.60
2019-01-03T20:17:33.703Z,11.60
2019-01-03T20:20:02.846Z,11.60
2019-01-03T20:22:31.441Z,11.50
2019-01-03T20:25:00.010Z,11.60
2019-01-03T20:27:41.550Z,11.60
2019-01-03T20:30:10.678Z,11.60
2019-01-03T20:32:39.290Z,11.50
2019-01-03T20:35:07.883Z,11.50
2019-01-03T20:37:36.461Z,11.50
2019-01-03T20:40:05.110Z,11.40
2019-01-03T20:42:53.196Z,11.40
2019-01-03T20:45:41.347Z,11.40
2019-01-03T20:48:29.787Z,11.40
2019-01-03T20:50:58.887Z,11.40
2019-01-03T20:53:27.476Z,11.30
2019-01-03T20:56:15.914Z,11.30
2019-01-03T21:01:54.783Z,11.20
2019-01-03T21:04:23.427Z,11.20
2019-01-03T21:06:52.251Z,11.20
2019-01-03T21:09:55.774Z,11.20
2019-01-03T21:12:24.956Z,11.20
2019-01-03T21:21:50.964Z,11.10
2019-01-03T22:05:57.693Z,10.80
2019-01-03T22:27:14.877Z,10.70
2019-01-03T22:49:57.592Z,10.70
2019-01-03T23:35:01.710Z,10.60
2019-01-03T23:43:50.278Z,10.60
2019-01-03T23:46:18.886Z,10.60
2019-01-03T23:48:48.035Z,10.60
2019-01-03T23:51:16.896Z,10.60
2019-01-03T23:53:45.481Z,10.60
2019-01-03T23:56:36.557Z,10.70
2019-01-03T23:59:05.171Z,10.70
